createdAt,value
2022-09-26T00:00:17.113Z,90.00
2022-09-26T00:02:45.102Z,89.30
2022-09-26T00:05:12.174Z,89.20
2022-09-26T00:07:38.930Z,89.00
2022-09-26T00:10:06.237Z,88.90
2022-09-26T00:12:32.973Z,88.70
2022-09-26T00:14:59.748Z,88.70
2022-09-26T00:17:26.462Z,88.60
2022-09-26T00:19:53.819Z,88.60
2022-09-26T00:22:20.590Z,89.50
2022-09-26T00:24:47.321Z,88.60
2022-09-26T00:27:14.038Z,88.50
2022-09-26T00:29:40.947Z,88.60
2022-09-26T00:32:07.682Z,88.60
2022-09-26T00:34:34.438Z,89.00
2022-09-26T00:37:01.794Z,89.00
2022-09-26T00:39:28.553Z,89.10
2022-09-26T00:41:55.664Z,89.30
2022-09-26T00:44:37.573Z,89.20
2022-09-26T00:47:04.409Z,89.00
2022-09-26T00:49:38.465Z,88.90
2022-09-26T00:52:26.970Z,88.80
2022-09-26T00:54:55.227Z,88.70
2022-09-26T00:57:36.799Z,88.70
2022-09-26T01:00:07.607Z,88.70
2022-09-26T01:02:34.494Z,88.70
2022-09-26T01:05:01.428Z,88.70
2022-09-26T01:07:28.317Z,88.70
2022-09-26T01:09:55.237Z,88.60
2022-09-26T01:12:22.173Z,89.00
2022-09-26T01:14:51.076Z,89.20
2022-09-26T01:17:17.806Z,89.60
2022-09-26T01:19:51.105Z,89.90
2022-09-26T01:22:39.708Z,90.10
2022-09-26T01:25:15.446Z,90.20
2022-09-26T01:27:50.561Z,89.70
2022-09-26T01:30:21.675Z,89.40
2022-09-26T01:33:07.618Z,89.30
2022-09-26T01:36:05.898Z,89.30
2022-09-26T01:38:35.788Z,89.20
2022-09-26T01:41:18.719Z,89.20
2022-09-26T01:43:57.812Z,89.30
2022-09-26T01:46:49.174Z,89.20
2022-09-26T01:49:53.999Z,89.20
2022-09-26T01:52:31.443Z,89.60
2022-09-26T01:55:00.895Z,90.10
2022-09-26T01:57:30.850Z,90.40
2022-09-26T02:00:02.672Z,90.70
2022-09-26T02:02:34.265Z,90.80
2022-09-26T02:05:05.137Z,90.50
2022-09-26T02:07:41.747Z,90.10
2022-09-26T02:10:13.202Z,90.00
2022-09-26T02:12:40.568Z,89.90
2022-09-26T02:15:09.462Z,89.70
2022-09-26T02:17:44.459Z,89.60
2022-09-26T02:20:25.831Z,89.60
2022-09-26T02:22:52.579Z,89.50
2022-09-26T02:25:19.390Z,89.60
2022-09-26T02:27:46.123Z,89.70
2022-09-26T02:30:12.954Z,89.60
2022-09-26T02:32:40.454Z,89.60
2022-09-26T02:35:26.156Z,90.20
2022-09-26T02:37:52.874Z,90.40
2022-09-26T02:40:20.391Z,90.50
2022-09-26T02:43:11.369Z,90.50
2022-09-26T02:45:47.683Z,90.40
2022-09-26T02:48:22.433Z,90.00
2022-09-26T02:51:34.419Z,90.00
2022-09-26T02:54:32.755Z,89.70
2022-09-26T02:57:14.145Z,89.50
2022-09-26T02:59:47.255Z,89.10
2022-09-26T03:02:15.943Z,89.10
2022-09-26T03:05:04.142Z,89.00
2022-09-26T03:07:35.903Z,89.00
2022-09-26T03:10:03.811Z,89.20
2022-09-26T03:12:30.851Z,89.50
2022-09-26T03:14:58.782Z,89.50
2022-09-26T03:17:26.954Z,90.10
2022-09-26T03:19:59.869Z,90.30
2022-09-26T03:22:26.581Z,90.40
2022-09-26T03:24:54.107Z,90.00
2022-09-26T03:27:20.888Z,89.60
2022-09-26T03:29:47.849Z,89.50
2022-09-26T03:32:14.713Z,89.30
2022-09-26T03:34:41.612Z,89.20
2022-09-26T03:37:10.737Z,89.10
2022-09-26T03:39:37.482Z,89.00
2022-09-26T03:42:05.541Z,89.00
2022-09-26T03:44:32.267Z,89.00
2022-09-26T03:46:58.987Z,89.00
2022-09-26T03:49:25.748Z,89.10
2022-09-26T03:51:52.506Z,89.30
2022-09-26T03:54:19.253Z,89.60
2022-09-26T03:56:46.038Z,89.90
2022-09-26T03:59:12.806Z,90.10
2022-09-26T04:01:40.469Z,90.20
2022-09-26T04:04:07.396Z,90.10
2022-09-26T04:06:34.647Z,90.00
2022-09-26T04:09:01.411Z,89.60
2022-09-26T04:11:28.195Z,89.30
2022-09-26T04:13:54.981Z,89.20
2022-09-26T04:16:23.332Z,89.10
2022-09-26T04:18:50.476Z,89.00
2022-09-26T04:21:17.328Z,88.90
2022-09-26T04:23:44.152Z,88.80
2022-09-26T04:26:22.921Z,88.70
2022-09-26T04:28:52.286Z,88.60
2022-09-26T04:31:21.474Z,88.70
2022-09-26T04:33:48.411Z,88.90
2022-09-26T04:36:15.547Z,89.70
2022-09-26T04:38:42.294Z,89.50
2022-09-26T04:41:16.560Z,89.40
2022-09-26T04:43:43.580Z,89.40
2022-09-26T04:46:20.114Z,89.60
2022-09-26T04:48:52.011Z,89.50
2022-09-26T04:51:19.443Z,90.00
2022-09-26T04:53:46.372Z,89.50
2022-09-26T04:56:14.063Z,89.60
2022-09-26T04:58:42.105Z,89.60
2022-09-26T05:01:12.138Z,89.60
2022-09-26T05:03:41.846Z,89.50
2022-09-26T05:06:10.586Z,89.30
2022-09-26T05:08:39.095Z,89.40
2022-09-26T05:11:05.934Z,89.30
2022-09-26T05:13:32.695Z,89.20
2022-09-26T05:16:00.167Z,89.20
2022-09-26T05:18:28.093Z,90.00
2022-09-26T05:20:55.528Z,89.10
2022-09-26T05:23:44.957Z,89.10
2022-09-26T05:26:20.697Z,89.10
2022-09-26T05:29:06.851Z,89.00
2022-09-26T05:31:36.558Z,89.00
2022-09-26T05:34:15.450Z,89.00
2022-09-26T05:36:45.446Z,88.90
2022-09-26T05:39:30.601Z,88.90
2022-09-26T05:41:58.210Z,88.80
2022-09-26T05:44:25.020Z,88.80
2022-09-26T05:46:52.146Z,88.90
2022-09-26T05:49:18.973Z,88.90
2022-09-26T05:51:46.533Z,88.80
2022-09-26T05:54:13.619Z,88.80
2022-09-26T05:56:40.598Z,88.80
2022-09-26T05:59:07.470Z,88.80
2022-09-26T06:01:34.464Z,88.90
2022-09-26T06:04:02.909Z,88.80
2022-09-26T06:06:32.661Z,88.80
2022-09-26T06:09:00.065Z,88.80
2022-09-26T06:11:31.149Z,88.80
2022-09-26T06:14:00.591Z,88.80
2022-09-26T06:16:27.847Z,88.80
2022-09-26T06:18:55.854Z,88.70
2022-09-26T06:21:23.100Z,88.80
2022-09-26T06:23:49.920Z,88.60
2022-09-26T06:26:20.165Z,88.70
2022-09-26T06:28:47.259Z,88.60
2022-09-26T06:31:16.731Z,88.70
2022-09-26T06:33:43.635Z,88.90
2022-09-26T06:36:11.318Z,89.10
2022-09-26T06:38:38.856Z,88.90
2022-09-26T06:41:07.526Z,88.80
2022-09-26T06:43:34.808Z,88.70
2022-09-26T06:46:01.693Z,88.70
2022-09-26T06:48:28.448Z,88.80
2022-09-26T06:50:57.155Z,88.80
2022-09-26T06:53:23.963Z,88.70
2022-09-26T06:55:50.734Z,88.00
2022-09-26T06:58:17.565Z,88.30
2022-09-26T07:00:44.533Z,88.70
2022-09-26T07:03:13.526Z,89.60
2022-09-26T07:05:41.076Z,90.10
2022-09-26T07:08:09.015Z,90.20
2022-09-26T07:10:36.219Z,90.20
2022-09-26T07:13:05.219Z,90.10
2022-09-26T07:15:33.414Z,90.10
2022-09-26T07:18:02.580Z,90.20
2022-09-26T07:20:32.434Z,90.40
2022-09-26T07:23:06.133Z,90.20
2022-09-26T07:25:33.625Z,89.10
2022-09-26T07:28:01.611Z,89.00
2022-09-26T07:30:28.501Z,89.30
2022-09-26T07:33:03.616Z,90.20
2022-09-26T07:35:34.452Z,90.40
2022-09-26T07:38:01.378Z,90.70
2022-09-26T07:40:28.433Z,90.80
2022-09-26T07:43:18.549Z,90.80
2022-09-26T07:46:16.139Z,90.70
2022-09-26T07:49:03.084Z,90.50
2022-09-26T07:51:32.176Z,90.10
2022-09-26T07:53:58.902Z,89.70
2022-09-26T07:56:25.667Z,90.10
2022-09-26T07:58:55.369Z,89.30
2022-09-26T08:01:22.169Z,90.00
2022-09-26T08:03:48.991Z,90.20
2022-09-26T08:06:20.150Z,88.50
2022-09-26T08:08:48.180Z,88.20
2022-09-26T08:11:18.237Z,87.40
2022-09-26T08:13:45.139Z,87.40
2022-09-26T08:16:19.539Z,87.70
2022-09-26T08:18:47.177Z,87.20
2022-09-26T08:21:14.264Z,88.00
2022-09-26T08:23:43.519Z,87.80
2022-09-26T08:26:11.338Z,87.80
2022-09-26T08:28:38.262Z,87.80
2022-09-26T08:31:05.675Z,86.80
2022-09-26T08:33:35.650Z,87.30
2022-09-26T08:36:11.686Z,87.40
2022-09-26T08:38:38.919Z,87.40
2022-09-26T08:41:32.801Z,87.40
2022-09-26T08:44:32.119Z,88.10
2022-09-26T08:47:05.855Z,88.10
2022-09-26T08:49:56.452Z,88.10
2022-09-26T08:52:28.131Z,87.90
2022-09-26T08:54:57.533Z,87.50
2022-09-26T08:57:44.893Z,87.40
2022-09-26T09:00:19.171Z,87.20
2022-09-26T09:03:22.111Z,86.80
2022-09-26T09:05:51.658Z,86.40
2022-09-26T09:08:22.538Z,86.40
2022-09-26T09:11:36.872Z,86.30
2022-09-26T09:14:26.377Z,86.30
2022-09-26T09:17:19.034Z,86.20
2022-09-26T09:19:56.131Z,86.30
2022-09-26T09:22:46.305Z,88.60
2022-09-26T09:25:31.861Z,87.70
2022-09-26T09:28:12.347Z,86.60
2022-09-26T09:30:51.015Z,87.20
2022-09-26T09:33:35.817Z,87.00
2022-09-26T09:36:22.559Z,86.70
2022-09-26T09:38:49.598Z,86.60
2022-09-26T09:41:29.931Z,86.70
2022-09-26T09:43:59.123Z,86.60
2022-09-26T09:46:33.225Z,86.60
2022-09-26T09:49:21.893Z,85.90
2022-09-26T09:52:25.948Z,86.30
2022-09-26T09:55:01.741Z,86.30
2022-09-26T09:57:41.644Z,85.60
2022-09-26T10:00:18.766Z,85.50
2022-09-26T10:03:01.506Z,85.40
2022-09-26T10:05:42.676Z,85.50
2022-09-26T10:08:20.234Z,84.60
2022-09-26T10:11:24.140Z,85.20
2022-09-26T10:13:55.385Z,84.40
2022-09-26T10:16:22.564Z,84.30
2022-09-26T10:19:02.320Z,84.80
2022-09-26T10:21:45.861Z,84.90
2022-09-26T10:24:24.392Z,85.10
2022-09-26T10:26:51.212Z,85.90
2022-09-26T10:29:35.128Z,85.60
2022-09-26T10:32:02.075Z,86.20
2022-09-26T10:34:32.959Z,84.80
2022-09-26T10:37:18.228Z,84.50
2022-09-26T10:40:10.849Z,85.00
2022-09-26T10:42:38.418Z,84.90
2022-09-26T10:45:32.229Z,85.40
2022-09-26T10:47:59.377Z,84.30
2022-09-26T10:50:28.475Z,85.90
2022-09-26T10:53:01.605Z,85.50
2022-09-26T10:55:31.987Z,84.40
2022-09-26T10:58:07.933Z,84.50
2022-09-26T11:00:43.333Z,84.20
2022-09-26T11:03:16.710Z,83.90
2022-09-26T11:05:56.536Z,83.40
2022-09-26T11:08:27.630Z,83.10
2022-09-26T11:10:55.163Z,82.50
2022-09-26T11:13:26.277Z,82.50
2022-09-26T11:16:05.758Z,82.20
2022-09-26T11:18:45.407Z,82.10
2022-09-26T11:21:35.214Z,81.90
2022-09-26T11:24:30.575Z,81.60
2022-09-26T11:27:31.229Z,81.30
2022-09-26T11:30:02.201Z,81.00
2022-09-26T11:32:51.591Z,80.60
2022-09-26T11:35:44.023Z,79.70
2022-09-26T11:38:16.886Z,80.40
2022-09-26T11:40:46.416Z,80.20
2022-09-26T11:43:29.252Z,79.90
2022-09-26T11:46:21.192Z,79.40
2022-09-26T11:49:02.917Z,78.90
2022-09-26T11:51:49.999Z,78.30
2022-09-26T11:54:42.380Z,78.00
2022-09-26T11:57:17.984Z,77.90
2022-09-26T11:59:53.858Z,77.40
2022-09-26T12:02:23.757Z,77.00
2022-09-26T12:05:01.334Z,78.20
2022-09-26T12:07:44.873Z,78.60
2022-09-26T12:10:34.169Z,78.60
2022-09-26T12:13:12.683Z,78.40
2022-09-26T12:15:56.247Z,78.70
2022-09-26T12:18:39.520Z,80.10
2022-09-26T12:21:32.261Z,79.80
2022-09-26T12:24:10.529Z,79.00
2022-09-26T12:26:39.800Z,78.70
2022-09-26T12:29:34.211Z,78.70
2022-09-26T12:32:14.983Z,79.00
2022-09-26T12:34:45.320Z,79.50
2022-09-26T12:37:43.488Z,79.00
2022-09-26T12:40:18.191Z,79.10
2022-09-26T12:43:16.913Z,78.70
2022-09-26T12:45:45.809Z,78.40
2022-09-26T12:48:34.308Z,78.30
2022-09-26T12:51:15.583Z,77.90
2022-09-26T12:54:15.846Z,77.70
2022-09-26T12:56:56.213Z,78.40
2022-09-26T12:59:38.690Z,77.70
2022-09-26T13:02:08.729Z,77.10
2022-09-26T13:05:01.114Z,76.60
2022-09-26T13:07:27.794Z,75.90
2022-09-26T13:10:09.942Z,75.50
2022-09-26T13:12:45.736Z,76.00
2022-09-26T13:15:50.330Z,76.10
2022-09-26T13:18:26.500Z,76.10
2022-09-26T13:20:59.113Z,75.00
2022-09-26T13:23:35.842Z,75.10
2022-09-26T13:26:09.628Z,73.30
2022-09-26T13:29:00.586Z,72.90
2022-09-26T13:31:35.898Z,73.00
2022-09-26T13:34:15.905Z,72.90
2022-09-26T13:36:42.689Z,73.40
2022-09-26T13:39:24.773Z,73.60
2022-09-26T13:42:16.209Z,72.10
2022-09-26T13:45:01.179Z,72.70
2022-09-26T13:47:49.423Z,73.00
2022-09-26T13:50:39.081Z,73.00
2022-09-26T13:53:05.788Z,73.00
2022-09-26T13:55:32.816Z,73.10
2022-09-26T13:58:09.027Z,72.80
2022-09-26T14:00:40.472Z,72.60
2022-09-26T14:03:10.044Z,72.30
2022-09-26T14:05:43.711Z,72.20
2022-09-26T14:08:44.746Z,72.40
2022-09-26T14:11:19.158Z,72.80
2022-09-26T14:13:48.214Z,72.60
2022-09-26T14:16:27.191Z,72.60
2022-09-26T14:18:58.082Z,72.60
2022-09-26T14:21:34.321Z,72.40
2022-09-26T14:24:19.961Z,72.00
2022-09-26T14:27:09.995Z,72.00
2022-09-26T14:29:39.572Z,71.60
2022-09-26T14:32:10.311Z,71.60
2022-09-26T14:34:50.417Z,71.60
2022-09-26T14:37:23.978Z,71.40
2022-09-26T14:40:24.596Z,70.10
2022-09-26T14:43:20.564Z,70.30
2022-09-26T14:46:00.912Z,70.70
2022-09-26T14:48:37.365Z,71.40
2022-09-26T14:51:16.186Z,70.50
2022-09-26T14:54:00.505Z,70.80
2022-09-26T14:56:27.290Z,70.20
2022-09-26T14:58:54.473Z,70.70
2022-09-26T15:01:31.690Z,68.30
2022-09-26T15:04:03.255Z,66.60
2022-09-26T15:06:31.033Z,66.70
2022-09-26T15:08:59.692Z,68.10
2022-09-26T15:11:33.021Z,68.40
2022-09-26T15:14:01.684Z,68.90
2022-09-26T15:16:32.453Z,68.60
2022-09-26T15:19:05.393Z,66.80
2022-09-26T15:21:42.305Z,65.70
2022-09-26T15:24:29.618Z,67.00
2022-09-26T15:26:58.490Z,69.20
2022-09-26T15:29:25.505Z,68.10
2022-09-26T15:31:53.042Z,63.50
2022-09-26T15:34:24.438Z,65.40
2022-09-26T15:36:54.854Z,63.40
2022-09-26T15:39:30.911Z,64.60
2022-09-26T15:42:18.704Z,64.50
2022-09-26T15:44:54.696Z,64.90
2022-09-26T15:47:30.451Z,63.90
2022-09-26T15:50:21.257Z,64.80
2022-09-26T15:52:57.562Z,65.10
2022-09-26T15:55:29.531Z,66.90
2022-09-26T15:57:58.620Z,66.90
2022-09-26T16:00:25.535Z,67.90
2022-09-26T16:02:52.305Z,67.30
2022-09-26T16:05:19.373Z,68.00
2022-09-26T16:07:50.329Z,68.10
2022-09-26T16:10:31.909Z,68.50
2022-09-26T16:13:00.598Z,68.00
2022-09-26T16:15:28.937Z,67.30
2022-09-26T16:17:57.314Z,65.70
2022-09-26T16:20:27.477Z,66.40
2022-09-26T16:23:04.814Z,65.10
2022-09-26T16:25:34.545Z,65.60
2022-09-26T16:28:20.887Z,65.90
2022-09-26T16:31:08.550Z,66.20
2022-09-26T16:33:37.660Z,66.30
2022-09-26T16:36:28.036Z,66.30
2022-09-26T16:38:59.372Z,66.60
2022-09-26T16:41:59.317Z,67.00
2022-09-26T16:44:34.536Z,67.10
2022-09-26T16:47:03.318Z,67.00
2022-09-26T16:49:34.557Z,67.10
2022-09-26T16:52:21.319Z,67.20
2022-09-26T16:54:49.839Z,67.40
2022-09-26T16:57:22.896Z,68.00
2022-09-26T16:59:50.186Z,68.10
2022-09-26T17:02:18.317Z,69.00
2022-09-26T17:04:45.099Z,70.70
2022-09-26T17:07:13.464Z,69.90
2022-09-26T17:09:42.383Z,69.10
2022-09-26T17:12:18.768Z,68.50
2022-09-26T17:14:48.822Z,68.00
2022-09-26T17:17:21.933Z,69.00
2022-09-26T17:19:50.586Z,68.00
2022-09-26T17:22:21.874Z,67.70
2022-09-26T17:24:50.082Z,67.10
2022-09-26T17:27:22.708Z,67.00
2022-09-26T17:29:50.534Z,66.80
2022-09-26T17:32:35.804Z,67.30
2022-09-26T17:35:19.154Z,66.10
2022-09-26T17:37:45.874Z,66.00
2022-09-26T17:40:19.304Z,66.50
2022-09-26T17:42:46.392Z,66.70
2022-09-26T17:45:13.330Z,65.70
2022-09-26T17:47:40.057Z,65.30
2022-09-26T17:50:07.827Z,65.20
2022-09-26T17:52:34.574Z,65.20
2022-09-26T17:55:06.168Z,65.30
2022-09-26T17:57:37.207Z,65.10
2022-09-26T18:00:11.463Z,65.10
2022-09-26T18:02:42.634Z,65.10
2022-09-26T18:05:21.930Z,66.30
2022-09-26T18:07:52.427Z,66.70
2022-09-26T18:10:21.794Z,66.00
2022-09-26T18:12:50.079Z,66.80
2022-09-26T18:15:19.536Z,66.90
2022-09-26T18:17:46.378Z,67.20
2022-09-26T18:20:13.096Z,67.30
2022-09-26T18:22:40.467Z,67.30
2022-09-26T18:25:07.867Z,66.90
2022-09-26T18:27:39.648Z,66.90
2022-09-26T18:30:07.688Z,66.90
2022-09-26T18:32:36.101Z,67.40
2022-09-26T18:35:02.855Z,67.70
2022-09-26T18:37:29.620Z,68.10
2022-09-26T18:40:00.166Z,69.00
2022-09-26T18:42:29.882Z,70.80
2022-09-26T18:45:00.617Z,73.30
2022-09-26T18:47:27.435Z,73.80
2022-09-26T18:49:54.172Z,75.60
2022-09-26T18:52:21.674Z,77.10
2022-09-26T18:55:08.365Z,78.90
2022-09-26T18:57:53.525Z,78.70
2022-09-26T19:00:20.295Z,77.10
2022-09-26T19:02:47.374Z,78.90
2022-09-26T19:05:15.176Z,81.90
2022-09-26T19:07:44.751Z,85.60
2022-09-26T19:10:15.952Z,84.70
2022-09-26T19:12:43.379Z,81.90
2022-09-26T19:15:15.051Z,80.30
2022-09-26T19:17:42.045Z,80.00
2022-09-26T19:20:09.093Z,79.60
2022-09-26T19:22:35.886Z,80.00
2022-09-26T19:25:02.625Z,81.30
2022-09-26T19:27:33.814Z,78.90
2022-09-26T19:30:11.575Z,78.40
2022-09-26T19:32:40.928Z,78.10
2022-09-26T19:35:14.551Z,78.60
2022-09-26T19:37:41.277Z,78.30
2022-09-26T19:40:15.244Z,79.00
2022-09-26T19:42:42.420Z,78.10
2022-09-26T19:45:10.493Z,78.00
2022-09-26T19:47:37.739Z,77.80
2022-09-26T19:50:04.762Z,77.70
2022-09-26T19:52:31.997Z,78.50
2022-09-26T19:54:58.808Z,83.10
2022-09-26T19:57:25.608Z,81.90
2022-09-26T19:59:52.332Z,80.60
2022-09-26T20:02:22.746Z,79.90
2022-09-26T20:04:51.258Z,79.40
2022-09-26T20:07:19.907Z,79.10
2022-09-26T20:09:46.858Z,78.90
2022-09-26T20:12:13.807Z,78.90
2022-09-26T20:14:40.797Z,78.60
2022-09-26T20:17:21.563Z,78.90
2022-09-26T20:19:50.811Z,78.70
2022-09-26T20:22:21.964Z,78.50
2022-09-26T20:24:54.937Z,78.40
2022-09-26T20:27:28.480Z,78.30
2022-09-26T20:30:14.286Z,78.10
2022-09-26T20:32:41.566Z,78.40
2022-09-26T20:35:10.964Z,80.00
2022-09-26T20:37:39.844Z,79.60
2022-09-26T20:40:14.342Z,79.70
2022-09-26T20:42:41.329Z,79.80
2022-09-26T20:45:22.499Z,79.70
2022-09-26T20:47:49.222Z,79.70
2022-09-26T20:50:18.371Z,79.20
2022-09-26T20:52:45.201Z,79.10
2022-09-26T20:55:16.080Z,79.40
2022-09-26T20:57:42.923Z,82.20
2022-09-26T21:00:14.978Z,80.80
2022-09-26T21:02:41.850Z,80.30
2022-09-26T21:05:18.724Z,80.10
2022-09-26T21:07:45.518Z,79.70
2022-09-26T21:10:28.574Z,79.50
2022-09-26T21:12:55.616Z,79.70
2022-09-26T21:15:23.303Z,79.70
2022-09-26T21:17:51.286Z,79.60
2022-09-26T21:20:26.133Z,79.60
2022-09-26T21:22:53.316Z,79.70
2022-09-26T21:25:22.556Z,79.70
2022-09-26T21:28:01.970Z,79.70
2022-09-26T21:30:29.156Z,79.60
2022-09-26T21:32:59.072Z,79.60
2022-09-26T21:35:28.767Z,79.70
2022-09-26T21:37:55.812Z,79.80
2022-09-26T21:40:25.218Z,79.80
2022-09-26T21:42:54.449Z,79.80
2022-09-26T21:45:27.117Z,79.80
2022-09-26T21:47:57.937Z,79.70
2022-09-26T21:50:25.983Z,79.60
2022-09-26T21:52:59.246Z,79.70
2022-09-26T21:55:29.825Z,79.80
2022-09-26T21:57:59.381Z,79.80
2022-09-26T22:00:26.131Z,80.00
2022-09-26T22:02:54.084Z,80.10
2022-09-26T22:05:22.667Z,80.20
2022-09-26T22:07:49.386Z,81.00
2022-09-26T22:10:16.371Z,80.20
2022-09-26T22:12:43.420Z,80.30
2022-09-26T22:15:10.439Z,81.20
2022-09-26T22:17:37.198Z,80.40
2022-09-26T22:20:04.252Z,80.50
2022-09-26T22:22:31.018Z,80.60
2022-09-26T22:25:02.535Z,81.00
2022-09-26T22:27:29.459Z,81.20
2022-09-26T22:29:56.282Z,81.30
2022-09-26T22:32:23.795Z,81.30
2022-09-26T22:34:50.565Z,81.20
2022-09-26T22:37:17.270Z,81.10
2022-09-26T22:39:44.131Z,81.10
2022-09-26T22:42:11.955Z,81.10
2022-09-26T22:44:38.658Z,81.30
2022-09-26T22:47:05.413Z,81.20
2022-09-26T22:49:32.516Z,81.10
2022-09-26T22:51:59.256Z,81.20
2022-09-26T22:54:26.428Z,81.30
2022-09-26T22:56:53.189Z,81.50
2022-09-26T22:59:19.930Z,81.70
2022-09-26T23:01:46.919Z,81.80
2022-09-26T23:04:13.806Z,81.80
2022-09-26T23:06:40.524Z,81.80
2022-09-26T23:09:07.381Z,81.90
2022-09-26T23:11:34.204Z,82.10
2022-09-26T23:14:00.925Z,82.10
2022-09-26T23:16:28.616Z,82.20
2022-09-26T23:18:55.785Z,82.20
2022-09-26T23:21:23.928Z,82.10
2022-09-26T23:23:52.226Z,82.10
2022-09-26T23:26:22.201Z,82.20
2022-09-26T23:28:52.819Z,82.00
2022-09-26T23:31:19.766Z,82.20
2022-09-26T23:33:46.603Z,82.20
2022-09-26T23:36:13.331Z,82.50
2022-09-26T23:38:40.231Z,82.40
2022-09-26T23:41:07.758Z,82.40
2022-09-26T23:43:34.564Z,83.60
2022-09-26T23:46:01.753Z,82.90
2022-09-26T23:48:28.876Z,82.70
2022-09-26T23:50:56.431Z,82.70
2022-09-26T23:53:23.195Z,82.70
2022-09-26T23:55:50.277Z,82.70
2022-09-26T23:58:17.116Z,82.70
